Cooksville, Illinois
Current Conditions -  °F | °C
As of 10:56 AM on Wednesday 26 Nov 2014 (Local Time) from KBMI Reporting Station
Overcast Overcast  
Wind Chill: -8°   Ceiling: 700
Heat Index: -3°   Visibility: 7mi
Dew Point: -4°   Wind: 12mph
Humidity: 92%   Direction: 140°SE
Pressure: 30.1"   Gusts: NA
Location:  40.54°N, 88.72°W
Report Text: KBMI 261656Z 14010KT 7SM OVC007 M03/M04 A3010 RMK AO2 T10271038 SLP214
Loading
Personal Weather Stations






























Interactive Weather Map New forecast layout! Learn more

10-Day Weather Forecast

Advertisements
Track Severe Weather on mobile